Aucune alerte pour le moment.

Rapports des METAR proches

 

LFAQ - Bray, France
Distance from station: SSO 19km
Mise à jour: 21/02/2018 08:30
Brume, Partiellement nuageux
Brume, Partiellement nuageux
 Vent NNE
Vent: NNE 19 km/h
Température: -1°C
Température au vent: -7°C
Point de rosée: -2°C
Humidité: 93%
Baromètre: 1023 hPa
Résumé: Brume
Clouds: Partiellement nuageux
Visibility: 2 km
2018/02/21 07:30 LFAQ 210730Z AUTO 03010KT 2300 BR NSC M01/M02 Q1023 BECMG 9999 NSW
LFQQ - Lille/Lesquin, France
Distance from station: NNE 53km
Mise à jour: 21/02/2018 08:30
Brume, Partiellement nuageux
Brume, Partiellement nuageux
 Vent NNE
Vent: NNE 13 km/h
Température: 0°C
Température au vent: -4°C
Point de rosée: -3°C
Humidité: 80%
Baromètre: 1025 hPa
Résumé: Brume
Clouds: Partiellement nuageux
Visibility: 4 km
2018/02/21 07:30 LFQQ 210730Z AUTO 03007KT 3500 BR NSC M00/M03 Q1025 BECMG 8000 NSW
EBCV - Chievres Ab, Belgium
Distance from station: NE 88km
Mise à jour: 21/02/2018 08:25
Brume, Clair
Brume, Clair
 Vent NNE
Vent: NNE 13 km/h
Température: -2°C
Température au vent: -7°C
Point de rosée: -3°C
Humidité: 93%
Baromètre: 1024 hPa
Résumé: Brume
Clouds: Clair
Visibility: 3 km
2018/02/21 07:25 EBCV 210725Z AUTO 03007KT 2600 BR NCD M02/M03 Q1024 YLO
 
LFOB - Beauvais/Tille(A, France
Distance from station: SSO 88km
Mise à jour: 21/02/2018 08:30
Brume, Partiellement nuageux
Brume, Partiellement nuageux
 Vent N
Vent: N 20 km/h
Température: 0°C
Température au vent: -6°C
Point de rosée: -2°C
Humidité: 87%
Baromètre: 1023 hPa
Résumé: Brume
Clouds: Partiellement nuageux
Visibility: 3 km
2018/02/21 07:30 LFOB 210730Z AUTO 01011KT 3400 BR NSC M00/M02 Q1023 BECMG 8000 NSW
LFAT - Le Touquet/P. Pl, France
Distance from station: ONO 93km
Mise à jour: 21/02/2018 08:30
Brume, Partiellement nuageux
Brume, Partiellement nuageux
 Vent calm
Vent: calme
Température: -1°C
Point de rosée: -2°C
Humidité: 93%
Baromètre: 1025 hPa
Résumé: Brume
Clouds: Partiellement nuageux
Visibility: 3 km
2018/02/21 07:30 LFAT 210730Z AUTO 00000KT 3100 BR NSC M01/M02 Q1025 BECMG
LFPC - Creil (fafb), France
Distance from station: S 100km
Mise à jour: 01/09/2016 17:00
NOT Current
Clair
Clair
 Vent ONO
Vent: ONO 7 km/h
Température: 24°C
Point de rosée: 13°C
Humidité: 50%
Baromètre: 1023 hPa
Résumé: Clair
Visibility: greater than 10 km
2016/09/01 15:00 LFPC 011500Z AUTO 30004KT 240V350 CAVOK 24/13 Q1023
 
EBFN - Koksijde (bel-Af, Belgium
Distance from station: N 105km
Mise à jour: 21/02/2018 08:25
Brume, Quelques nuages
Brume, Quelques nuages
 Vent ENE
Vent: ENE 11 km/h
Température: 0°C
Température au vent: -4°C
Point de rosée: -1°C
Humidité: 93%
Baromètre: 1026 hPa
Résumé: Brume
Clouds: Quelques nuages
Visibility: 5 km
Cloud details: Quelques nuages 610 m
2018/02/21 07:25 EBFN 210725Z 06006KT 5000 BR FEW020 00/M01 Q1026 WHT WHT TEMPO GRN
EBOS - Oostende Airport, Belgium
Distance from station: N 119km
Mise à jour: 21/02/2018 08:20
Partiellement nuageux
Partiellement nuageux
 Vent ENE
Vent: ENE 13 km/h
Température: 0°C
Température au vent: -4°C
Point de rosée: -3°C
Humidité: 80%
Baromètre: 1026 hPa
Clouds: Partiellement nuageux
Visibility: 6 km
2018/02/21 07:20 EBOS 210720Z 07007KT 6000 NSC M00/M03 Q1026 NOSIG
EBCI - Charleroi/Gossel, Belgium
Distance from station: ENE 124km
Mise à jour: 21/02/2018 08:20
Brume, Partiellement nuageux
Brume, Partiellement nuageux
 Vent NNE
Vent: NNE 13 km/h
Température: -3°C
Température au vent: -7°C
Point de rosée: -4°C
Humidité: 93%
Baromètre: 1023 hPa
Résumé: Brume
Clouds: Partiellement nuageux
Visibility: 4 km
2018/02/21 07:20 EBCI 210720Z 03007KT 3500 BR NSC M03/M04 Q1023 NOSIG
 
LFPG - Charles De Gaull, France
Distance from station: S 125km
Mise à jour: 21/02/2018 08:30
Brume, Partiellement nuageux
Brume, Partiellement nuageux
 Vent N
Vent: N 20 km/h
Température: 0°C
Température au vent: -6°C
Point de rosée: -2°C
Humidité: 87%
Baromètre: 1022 hPa
Résumé: Brume
Clouds: Partiellement nuageux
Visibility: 3 km
2018/02/21 07:30 LFPG 210730Z 01011KT 360V070 2500 BR NSC M00/M02 Q1022 NOSIG
LFPT - Cormeilles Vexin, France
Distance from station: SSO 127km
Mise à jour: 21/02/2018 08:30
Brume, Partiellement nuageux
Brume, Partiellement nuageux
 Vent NNE
Vent: NNE 19 km/h
Température: 0°C
Température au vent: -5°C
Point de rosée: -2°C
Humidité: 87%
Baromètre: 1023 hPa
Résumé: Brume
Clouds: Partiellement nuageux
Visibility: 3 km
2018/02/21 07:30 LFPT 210730Z AUTO 03010KT 3200 BR NSC 00/M02 Q1023
LFPB - Paris/Le Bourget, France
Distance from station: S 132km
Mise à jour: 21/02/2018 08:30
Brume, Partiellement nuageux
Brume, Partiellement nuageux
 Vent N
Vent: N 15 km/h
Température: 0°C
Température au vent: -4°C
Point de rosée: -2°C
Humidité: 87%
Baromètre: 1023 hPa
Résumé: Brume
Clouds: Partiellement nuageux
Visibility: 3 km
2018/02/21 07:30 LFPB 210730Z AUTO 01008KT 3000 BR NSC 00/M02 Q1023 BECMG 9999 NSW
 
EBFS - Florennes (bel-A, Belgium
Distance from station: E 133km
Mise à jour: 21/02/2018 08:25
Brume, Très nuageux
Brume, Très nuageux
 Vent NNE
Vent: NNE 17 km/h
Température: -4°C
Température au vent: -9°C
Point de rosée: -5°C
Humidité: 93%
Baromètre: 1022 hPa
Résumé: Brume
Clouds: Très nuageux
Visibility: 2 km
Cloud details: Très nuageux 152 m
2018/02/21 07:25 EBFS 210725Z 03009KT 1800 BR BKN005 M04/M05 Q1022 YLO YLO
LFQA - Reims/Prunay, France
Distance from station: SE 143km
Mise à jour: 21/02/2018 08:30
Brume, Partiellement nuageux
Brume, Partiellement nuageux
 Vent NNE
Vent: NNE 15 km/h
Température: -2°C
Température au vent: -7°C
Point de rosée: -3°C
Humidité: 93%
Baromètre: 1022 hPa
Résumé: Brume
Clouds: Partiellement nuageux
Visibility: 3 km
2018/02/21 07:30 LFQA 210730Z AUTO 02008KT 3100 BR NSC M02/M03 Q1022
LFOP - Rouen/Boos (aut), France
Distance from station: SO 144km
Mise à jour: 21/02/2018 08:30
Brume, Partiellement nuageux
Brume, Partiellement nuageux
 Vent NE
Vent: NE 15 km/h
Température: 0°C
Température au vent: -4°C
Point de rosée: -2°C
Humidité: 87%
Baromètre: 1023 hPa
Résumé: Brume
Clouds: Partiellement nuageux
Visibility: 4 km
2018/02/21 07:30 LFOP 210730Z AUTO 04008KT 4000 BR NSC M00/M02 Q1023 BECMG 8000 NSW
 
EBBR - Brussels Nationa, Belgium
Distance from station: NE 148km
Mise à jour: 21/02/2018 08:20
Brume, Partiellement nuageux
Brume, Partiellement nuageux
 Vent ENE
Vent: ENE 6 km/h
Température: -3°C
Point de rosée: -5°C
Humidité: 86%
Baromètre: 1024 hPa
Résumé: Brume
Clouds: Partiellement nuageux
Visibility: 4 km
2018/02/21 07:20 EBBR 210720Z 06003KT 3900 BR NSC M03/M05 Q1024 BECMG 7000 NSW
EBBE - Beauvechain (baf, Belgium
Distance from station: ENE 156km
Mise à jour: 21/02/2018 08:25
Brume, Quelques nuages
Brume, Quelques nuages
 Vent NNE
Vent: NNE 7 km/h
Température: -3°C
Température au vent: -6°C
Point de rosée: -5°C
Humidité: 86%
Baromètre: 1024 hPa
Résumé: Brume
Clouds: Quelques nuages
Visibility: 4 km
Cloud details: Quelques nuages 7315 m
2018/02/21 07:25 EBBE 210725Z 03004KT 3500 BR FEW240 M03/M05 Q1024 YLO GRN TEMPO YLO
EHFS - Vlissingen, Netherlands
Distance from station: NNE 157km
Mise à jour: 21/02/2018 08:25
Brume, Clair
Brume, Clair
 Vent NE
Vent: NE 17 km/h
Température: 0°C
Température au vent: -4°C
Point de rosée: -2°C
Humidité: 87%
Baromètre: 1025 hPa
Résumé: Brume
Clouds: Clair
Visibility: 5 km
2018/02/21 07:25 EHFS 210725Z AUTO 04009KT 4500 BR NCD M00/M02 Q1025 W///H///
 
LFPV - Villacoublay/Vel, France
Distance from station: SSO 157km
Mise à jour: 21/02/2018 08:30
Brume, Couvert
Brume, Couvert
 Vent NNE
Vent: NNE 20 km/h
Température: 0°C
Température au vent: -6°C
Point de rosée: -2°C
Humidité: 87%
Baromètre: 1022 hPa
Résumé: Brume
Clouds: Couvert
Visibility: 4 km
Cloud details: Couvert 335 m
2018/02/21 07:30 LFPV 210730Z AUTO 02011KT 340V050 3700 BR OVC011 M00/M02 Q1022 BECMG 7000 NSW NSC
EGMD - Lydd Airport, United Kingdom
Distance from station: NO 160km
Mise à jour: 21/02/2018 08:20
Brume, Quelques nuages
Brume, Quelques nuages
 Vent N
Vent: N 17 km/h
Température: 1°C
Température au vent: -3°C
Point de rosée: 0°C
Humidité: 93%
Baromètre: 1026 hPa
Résumé: Brume
Clouds: Quelques nuages
Visibility: 5 km
Cloud details: Quelques nuages 975 m
2018/02/21 07:20 EGMD 210720Z AUTO 35009KT 5000 HZ FEW032/// 01/M00 Q1026